CheckWX is a tool to help pilots better visualize weather data.  It is not intended as a substitute for an official pre-flight weather briefing.

15:56:44 UTC

KSFB TAF
Orlando Sanford International Airport
Orlando, Florida, USA
KSFB 171501Z 1715/1812 31009KT 2SM BR OVC006 TEMPO 1715/1717 3SM BR BKN006 OVC014 FM171700 32011KT P6SM SCT011 BKN014 FM171830 32010KT P6SM SCT020 BKN035 FM172100 33010KT P6SM SCT035 FM180200 34004KT P6SM BKN035

Nov-17@
15:00 UTC

Nov-17 @ 15:00 UTC

Nov-17@
17:00 UTC

Nov-17 @ 17:00 UTC

KSFB 171501Z 1715/1812 31009KT 2SM BR OVC006
Wind
  • 310° at 9 KTS
Conditions
Mist
Cloud Levels
  • Overcast at 600' AGL

Nov-17@
15:00 UTC

Nov-17 @ 15:00 UTC

Nov-17@
17:00 UTC

Nov-17 @ 17:00 UTC

TEMPO 1715/1717 3SM BR BKN006 OVC014

Temporary

Temporary Changes expected for less than half the time period

Conditions
Mist
Cloud Levels
  • Broken at 600' AGL
  • Overcast at 1,400' AGL

Nov-17@
17:00 UTC

Nov-17 @ 17:00 UTC

Nov-17@
18:30 UTC

Nov-17 @ 18:30 UTC

FM171700 32011KT P6SM SCT011 BKN014

From

From Standard forecast or significant change

Wind
  • 320° at 11 KTS
Cloud Levels
  • Scattered at 1,100' AGL
  • Broken at 1,400' AGL

Nov-17@
18:30 UTC

Nov-17 @ 18:30 UTC

Nov-17@
21:00 UTC

Nov-17 @ 21:00 UTC

FM171830 32010KT P6SM SCT020 BKN035

From

From Standard forecast or significant change

Wind
  • 320° at 10 KTS
Cloud Levels
  • Scattered at 2,000' AGL
  • Broken at 3,500' AGL

Nov-17@
21:00 UTC

Nov-17 @ 21:00 UTC

Nov-18@
02:00 UTC

Nov-18 @ 02:00 UTC

FM172100 33010KT P6SM SCT035

From

From Standard forecast or significant change

Wind
  • 330° at 10 KTS
Cloud Levels
  • Scattered at 3,500' AGL

Nov-18@
02:00 UTC

Nov-18 @ 02:00 UTC

Nov-18@
12:00 UTC

Nov-18 @ 12:00 UTC

FM180200 34004KT P6SM BKN035

From

From Standard forecast or significant change

Wind
  • 340° at 4 KTS
Cloud Levels
  • Broken at 3,500' AGL